Time;durP1;ratioP1;P1;durP2;ratioP2;P2;SDS_P1;SDS_P2;PMS_P1;PMS_P2;Temp;Humidity;BMP_temperature;BMP_pressure;BME280_temperature;BME280_humidity;BME280_pressure;Samples;Min_cycle;Max_cycle;Signal;HPM_P1;HPM_P2
2021/07/27 00:00:22;;;;;;;4.35;2.28;;;22.60;71.50;;;;;;5012604;28;20026;-75
2021/07/27 00:02:47;;;;;;;4.93;2.15;;;22.70;71.80;;;;;;5024724;28;20045;-75
2021/07/27 00:05:13;;;;;;;2.60;1.88;;;22.70;71.90;;;;;;5030793;28;20042;-75
2021/07/27 00:07:39;;;;;;;2.35;1.90;;;22.60;71.80;;;;;;5015867;28;20018;-75
2021/07/27 00:10:06;;;;;;;11.23;2.15;;;22.60;72.00;;;;;;5014609;28;20044;-75
2021/07/27 00:12:31;;;;;;;2.38;2.03;;;22.60;72.20;;;;;;5013402;28;20052;-75
2021/07/27 00:14:57;;;;;;;3.35;2.00;;;22.50;72.30;;;;;;5013613;28;20497;-75
2021/07/27 00:17:24;;;;;;;2.22;1.88;;;22.50;72.60;;;;;;5013690;28;20038;-74
2021/07/27 00:19:50;;;;;;;3.35;2.30;;;22.40;72.90;;;;;;5026899;28;20021;-75
2021/07/27 00:22:15;;;;;;;3.42;2.72;;;22.40;72.80;;;;;;5011918;28;20435;-75
2021/07/27 00:24:41;;;;;;;4.10;2.20;;;22.40;73.10;;;;;;5012751;28;20030;-75
2021/07/27 00:27:06;;;;;;;2.70;1.77;;;22.40;73.10;;;;;;5014209;28;20076;-75
2021/07/27 00:29:34;;;;;;;2.85;2.03;;;22.30;73.10;;;;;;5014996;28;20121;-75
2021/07/27 00:31:59;;;;;;;3.28;2.35;;;22.20;73.30;;;;;;5021248;28;20368;-75
2021/07/27 00:34:25;;;;;;;6.78;2.28;;;22.00;73.60;;;;;;5014465;28;20025;-75
2021/07/27 00:36:51;;;;;;;4.85;2.15;;;21.90;73.80;;;;;;5013836;28;20021;-75
2021/07/27 00:39:17;;;;;;;3.50;2.03;;;21.90;74.20;;;;;;5010991;28;20559;-75
2021/07/27 00:41:42;;;;;;;6.70;2.42;;;22.00;74.60;;;;;;5012803;28;20030;-75
2021/07/27 00:44:08;;;;;;;3.95;2.42;;;22.10;73.90;;;;;;5013226;28;20034;-75
2021/07/27 00:46:33;;;;;;;4.88;1.95;;;22.10;74.20;;;;;;5020442;28;20022;-75
2021/07/27 00:49:00;;;;;;;4.15;2.08;;;22.10;74.60;;;;;;5013158;28;20026;-75
2021/07/27 00:51:26;;;;;;;2.40;1.67;;;22.10;74.80;;;;;;5007733;28;20022;-75
2021/07/27 00:53:52;;;;;;;3.58;2.40;;;22.20;74.80;;;;;;5012969;28;20113;-75
2021/07/27 00:56:18;;;;;;;4.50;2.20;;;22.20;75.00;;;;;;5012440;28;20453;-75
2021/07/27 00:58:44;;;;;;;2.90;2.42;;;22.10;74.80;;;;;;5012726;28;20699;-75
2021/07/27 01:01:09;;;;;;;6.93;3.03;;;22.10;74.70;;;;;;5013070;28;20022;-75
2021/07/27 01:03:35;;;;;;;4.10;2.05;;;22.00;74.80;;;;;;5013116;28;20026;-75
2021/07/27 01:06:00;;;;;;;3.60;2.88;;;21.90;75.30;;;;;;5013146;28;20087;-75
2021/07/27 01:08:26;;;;;;;4.82;2.95;;;21.90;76.00;;;;;;5011683;28;20029;-75
2021/07/27 01:10:53;;;;;;;3.00;2.28;;;21.80;76.20;;;;;;5013032;28;20026;-75
2021/07/27 01:13:18;;;;;;;5.57;2.80;;;21.70;76.20;;;;;;5012555;28;20030;-75
2021/07/27 01:15:45;;;;;;;2.72;2.15;;;21.70;76.60;;;;;;5011982;28;20053;-75
2021/07/27 01:18:17;;;;;;;2.38;2.17;;;21.60;76.20;;;;;;5012879;28;20026;-75
2021/07/27 01:37:23;;;;;;;2.50;1.80;;;21.60;76.70;;;;;;5013040;28;20029;-74
2021/07/27 01:37:38;;;;;;;4.75;2.47;;;21.90;76.60;;;;;;5011363;28;20518;-75
2021/07/27 01:40:06;;;;;;;2.65;1.85;;;21.80;76.80;;;;;;5010626;28;20028;-75
2021/07/27 01:42:39;;;;;;;5.15;2.40;;;21.70;77.00;;;;;;5009955;28;20088;-75
2021/07/27 01:45:10;;;;;;;6.18;2.83;;;21.70;77.20;;;;;;5011975;28;20022;-75
2021/07/27 01:47:36;;;;;;;3.50;2.17;;;21.60;77.50;;;;;;5011850;28;20037;-75
2021/07/27 01:50:02;;;;;;;4.93;2.10;;;21.60;77.20;;;;;;5012105;28;20049;-75
2021/07/27 01:52:27;;;;;;;7.88;2.47;;;21.60;77.60;;;;;;5010913;28;20022;-75
2021/07/27 01:54:55;;;;;;;5.82;2.13;;;21.60;78.10;;;;;;5008314;28;20097;-75
2021/07/27 01:57:23;;;;;;;3.03;2.05;;;21.50;78.70;;;;;;5011534;28;20428;-75
2021/07/27 02:00:01;;;;;;;3.30;2.00;;;21.60;78.40;;;;;;5007184;28;20049;-75
2021/07/27 02:02:27;;;;;;;4.88;2.50;;;21.50;78.30;;;;;;5009986;28;20036;-75
2021/07/27 02:04:53;;;;;;;5.97;3.70;;;21.60;78.10;;;;;;5011790;28;20026;-75
2021/07/27 02:07:18;;;;;;;8.73;6.38;;;21.60;77.90;;;;;;5011812;28;20034;-75
2021/07/27 02:09:45;;;;;;;9.77;8.20;;;21.50;78.00;;;;;;5011815;28;20034;-75
2021/07/27 02:12:19;;;;;;;6.85;5.40;;;21.50;78.10;;;;;;5011787;28;20018;-74
2021/07/27 02:15:05;;;;;;;8.65;7.28;;;21.50;78.40;;;;;;5011374;28;20056;-73
2021/07/27 02:17:35;;;;;;;8.70;7.60;;;21.50;78.30;;;;;;5007768;28;20105;-74
2021/07/27 02:20:03;;;;;;;13.13;9.88;;;21.50;78.90;;;;;;5000744;28;20035;-74
2021/07/27 02:22:35;;;;;;;5.03;4.45;;;21.50;78.40;;;;;;5003870;28;20117;-75
2021/07/27 02:25:01;;;;;;;9.50;5.55;;;21.50;78.20;;;;;;5004292;28;20054;-75
2021/07/27 02:27:27;;;;;;;10.07;7.35;;;21.50;78.40;;;;;;5011599;28;20030;-75
2021/07/27 02:29:52;;;;;;;4.40;3.60;;;21.40;78.30;;;;;;5008384;28;20029;-75
2021/07/27 02:32:18;;;;;;;8.20;4.63;;;21.40;78.40;;;;;;5011547;28;20040;-75
2021/07/27 02:34:43;;;;;;;6.60;4.47;;;21.40;78.40;;;;;;5009412;28;20026;-75
2021/07/27 02:37:09;;;;;;;4.43;3.47;;;21.40;78.30;;;;;;5011316;28;20106;-75
2021/07/27 02:39:35;;;;;;;5.13;4.00;;;21.40;78.60;;;;;;5005282;28;20664;-75
2021/07/27 02:42:00;;;;;;;5.95;3.33;;;21.40;78.50;;;;;;5011291;28;20044;-75
2021/07/27 02:44:26;;;;;;;6.72;2.95;;;21.40;78.70;;;;;;5009948;28;20029;-75
2021/07/27 02:46:51;;;;;;;4.32;2.85;;;21.30;78.40;;;;;;5009650;28;20018;-75
2021/07/27 02:49:17;;;;;;;5.78;4.20;;;21.40;78.70;;;;;;5009516;28;20037;-75
2021/07/27 02:51:50;;;;;;;6.40;4.88;;;21.40;78.40;;;;;;5010867;28;20072;-75
2021/07/27 02:54:16;;;;;;;3.83;2.53;;;21.30;78.60;;;;;;5010758;28;20029;-75
2021/07/27 02:56:41;;;;;;;6.03;3.63;;;21.20;78.90;;;;;;5011191;28;20079;-75
2021/07/27 02:59:07;;;;;;;6.00;3.40;;;21.20;79.00;;;;;;5009470;28;20419;-75
2021/07/27 03:01:32;;;;;;;6.80;3.42;;;21.10;79.00;;;;;;5010469;28;20034;-75
2021/07/27 03:03:58;;;;;;;5.13;2.65;;;21.10;78.60;;;;;;5010006;28;20034;-75
2021/07/27 03:06:24;;;;;;;3.78;2.53;;;21.00;78.80;;;;;;5010226;28;20124;-75
2021/07/27 03:11:21;;;;;;;3.03;2.30;;;20.90;79.40;;;;;;5009653;28;20393;-75
2021/07/27 03:13:47;;;;;;;3.03;2.38;;;20.90;79.40;;;;;;5010522;28;20118;-75
2021/07/27 03:16:17;;;;;;;4.53;2.08;;;20.90;79.60;;;;;;5009460;28;20524;-74
2021/07/27 03:18:44;;;;;;;5.22;2.75;;;20.90;79.70;;;;;;5008822;28;20033;-74
2021/07/27 03:21:11;;;;;;;2.70;1.63;;;20.90;79.80;;;;;;5010834;28;20049;-75
2021/07/27 03:23:37;;;;;;;3.85;2.42;;;20.90;79.50;;;;;;5009885;28;20026;-75
2021/07/27 03:26:02;;;;;;;5.40;2.00;;;20.90;79.40;;;;;;5010940;28;20033;-75
2021/07/27 03:28:28;;;;;;;7.50;2.70;;;20.90;79.30;;;;;;5009265;28;20068;-75
2021/07/27 03:30:53;;;;;;;3.00;2.65;;;20.90;79.50;;;;;;5009493;28;20362;-75
2021/07/27 03:33:18;;;;;;;3.28;2.58;;;20.90;79.50;;;;;;5010385;28;20062;-75
2021/07/27 03:35:44;;;;;;;5.38;2.42;;;20.90;79.60;;;;;;5008472;28;20025;-75
2021/07/27 03:38:09;;;;;;;3.75;2.17;;;20.90;79.40;;;;;;5008848;28;20033;-75
2021/07/27 03:40:35;;;;;;;3.50;2.38;;;20.90;79.90;;;;;;5011467;28;20044;-75
2021/07/27 03:43:01;;;;;;;6.32;2.15;;;20.90;79.80;;;;;;5009382;28;20032;-75
2021/07/27 03:45:27;;;;;;;4.28;2.55;;;21.00;79.60;;;;;;5014240;28;20026;-75
2021/07/27 03:47:52;;;;;;;3.83;2.53;;;21.00;79.40;;;;;;5010422;28;20033;-75
2021/07/27 03:50:18;;;;;;;5.85;2.05;;;21.00;79.40;;;;;;5004625;28;20622;-75
2021/07/27 03:52:43;;;;;;;2.97;2.58;;;21.00;79.30;;;;;;5028625;28;20022;-75
2021/07/27 03:55:09;;;;;;;4.88;3.10;;;21.00;79.70;;;;;;5008815;28;20034;-75
2021/07/27 03:57:35;;;;;;;5.72;2.85;;;20.90;79.70;;;;;;5004957;28;20072;-75
2021/07/27 04:00:00;;;;;;;4.00;2.22;;;20.90;79.50;;;;;;5007693;28;20485;-75
2021/07/27 04:02:26;;;;;;;4.47;3.10;;;21.00;79.60;;;;;;5008568;28;20190;-75
2021/07/27 04:04:51;;;;;;;5.55;2.55;;;21.00;79.60;;;;;;5008836;28;20054;-75
2021/07/27 04:07:17;;;;;;;3.10;2.03;;;21.00;79.70;;;;;;5013133;28;20037;-75
2021/07/27 04:09:43;;;;;;;4.05;2.38;;;21.00;79.90;;;;;;5005369;28;20048;-75
2021/07/27 04:12:08;;;;;;;4.38;2.20;;;21.00;79.80;;;;;;5008015;28;20397;-75
2021/07/27 04:14:35;;;;;;;3.75;3.10;;;21.00;79.60;;;;;;5007663;28;20136;-75
2021/07/27 04:17:00;;;;;;;3.33;2.72;;;21.00;79.80;;;;;;5011588;28;20026;-75
2021/07/27 04:19:26;;;;;;;4.32;2.92;;;21.00;79.80;;;;;;5012144;28;20513;-74
2021/07/27 04:21:51;;;;;;;5.05;2.55;;;21.10;79.70;;;;;;5016728;28;20033;-72
2021/07/27 04:24:18;;;;;;;5.55;2.88;;;21.30;79.70;;;;;;5013103;28;20160;-75
2021/07/27 04:26:48;;;;;;;12.20;3.65;;;21.40;79.40;;;;;;5012159;28;20053;-75
2021/07/27 04:29:17;;;;;;;3.28;2.40;;;21.70;78.90;;;;;;5009187;28;20030;-75
2021/07/27 04:31:42;;;;;;;3.35;2.13;;;21.90;78.80;;;;;;5009133;28;20417;-76
2021/07/27 04:34:08;;;;;;;3.88;2.40;;;21.90;78.60;;;;;;5010934;28;20033;-76
2021/07/27 04:36:33;;;;;;;4.22;2.35;;;21.90;78.40;;;;;;5018808;28;20033;-75
2021/07/27 04:38:59;;;;;;;2.35;2.15;;;21.90;78.40;;;;;;5010991;28;20034;-76
2021/07/27 04:41:25;;;;;;;5.22;2.50;;;21.80;78.50;;;;;;5010762;28;20542;-76
2021/07/27 04:43:50;;;;;;;6.93;4.53;;;21.80;78.30;;;;;;5010646;28;20021;-75
2021/07/27 04:46:16;;;;;;;5.97;3.45;;;21.90;78.30;;;;;;5010290;28;20133;-75
2021/07/27 04:48:41;;;;;;;14.80;12.02;;;22.00;78.20;;;;;;5013051;28;20500;-75
2021/07/27 04:51:07;;;;;;;27.90;20.10;;;22.00;77.90;;;;;;5011072;28;20032;-75
2021/07/27 04:53:36;;;;;;;16.30;11.25;;;22.10;77.90;;;;;;5012185;28;20038;-75
2021/07/27 04:56:03;;;;;;;8.80;5.82;;;22.30;77.90;;;;;;5019240;28;20026;-76
2021/07/27 04:58:28;;;;;;;5.60;2.75;;;22.60;77.00;;;;;;5011461;28;20045;-75
2021/07/27 05:01:01;;;;;;;6.35;3.00;;;23.00;77.10;;;;;;5009961;28;20030;-75
2021/07/27 05:03:30;;;;;;;5.00;2.90;;;23.30;75.90;;;;;;5011498;28;20165;-75
2021/07/27 05:05:56;;;;;;;4.05;2.78;;;23.70;75.70;;;;;;5011737;28;20503;-75
2021/07/27 05:08:22;;;;;;;6.47;3.00;;;23.90;74.30;;;;;;5010934;28;20030;-75
2021/07/27 05:10:47;;;;;;;2.78;2.25;;;24.00;73.00;;;;;;5011621;28;20109;-75
2021/07/27 05:13:13;;;;;;;8.80;6.28;;;23.90;73.00;;;;;;5010979;28;20555;-75
2021/07/27 05:15:39;;;;;;;3.80;2.83;;;23.80;72.70;;;;;;5010180;28;20022;-75
2021/07/27 05:18:04;;;;;;;3.67;2.90;;;23.70;72.70;;;;;;5009049;28;20030;-73
2021/07/27 05:20:30;;;;;;;7.70;6.45;;;23.50;73.00;;;;;;5006123;28;20026;-75
2021/07/27 05:22:56;;;;;;;7.38;5.70;;;23.30;73.40;;;;;;5006674;28;20022;-77
2021/07/27 05:25:22;;;;;;;12.07;8.50;;;23.00;73.90;;;;;;5003623;28;20025;-78
2021/07/27 05:27:48;;;;;;;3.67;3.33;;;22.80;74.20;;;;;;5008691;28;20036;-78
2021/07/27 05:30:14;;;;;;;6.75;3.90;;;22.70;74.60;;;;;;5008211;28;20437;-78
2021/07/27 05:32:41;;;;;;;5.10;3.33;;;22.70;74.80;;;;;;5009713;28;20125;-78
2021/07/27 05:35:07;;;;;;;8.48;3.75;;;22.80;74.60;;;;;;5010665;28;20037;-78
2021/07/27 05:37:33;;;;;;;3.40;3.10;;;22.70;74.60;;;;;;5010503;28;20041;-78
2021/07/27 05:39:58;;;;;;;9.88;3.85;;;22.70;74.60;;;;;;5009811;28;20029;-78
2021/07/27 05:42:24;;;;;;;5.47;3.83;;;22.70;74.80;;;;;;5009554;28;20043;-79
2021/07/27 05:44:49;;;;;;;3.17;2.80;;;22.80;74.80;;;;;;5017585;28;20392;-79
2021/07/27 05:47:16;;;;;;;5.13;2.20;;;22.80;74.50;;;;;;5011074;28;20092;-79
2021/07/27 05:49:41;;;;;;;4.75;3.10;;;22.70;74.70;;;;;;5009741;28;20080;-78
2021/07/27 05:52:11;;;;;;;5.20;3.15;;;22.60;75.00;;;;;;5010543;28;20425;-78
2021/07/27 05:54:41;;;;;;;4.00;3.58;;;22.50;75.20;;;;;;5009223;28;20069;-78
2021/07/27 05:57:13;;;;;;;4.63;2.83;;;22.60;75.00;;;;;;5010365;28;20683;-78
2021/07/27 05:59:40;;;;;;;3.05;2.25;;;22.70;75.20;;;;;;5007055;28;20029;-78
2021/07/27 06:02:06;;;;;;;3.08;2.47;;;23.00;75.00;;;;;;5008549;28;20060;-78
2021/07/27 06:04:31;;;;;;;4.55;3.00;;;23.20;74.70;;;;;;5017133;28;20378;-78
2021/07/27 06:06:57;;;;;;;2.40;2.20;;;23.40;73.90;;;;;;5008670;28;20033;-78
2021/07/27 06:09:22;;;;;;;3.53;3.17;;;23.50;73.90;;;;;;5008260;28;20038;-78
2021/07/27 06:11:48;;;;;;;3.03;2.67;;;23.70;73.20;;;;;;5010146;28;20108;-79
2021/07/27 06:14:14;;;;;;;3.13;2.40;;;24.00;72.90;;;;;;5010057;28;20042;-78
2021/07/27 06:16:40;;;;;;;5.60;2.83;;;24.10;72.40;;;;;;5009102;28;20057;-78
2021/07/27 06:19:07;;;;;;;4.78;2.58;;;24.30;72.00;;;;;;5009417;28;20029;-78
2021/07/27 06:21:35;;;;;;;4.45;2.97;;;24.40;71.50;;;;;;5004341;28;20029;-78
2021/07/27 06:24:00;;;;;;;7.28;2.28;;;24.50;71.20;;;;;;5010636;28;20025;-78
2021/07/27 06:26:26;;;;;;;4.10;3.20;;;24.60;71.00;;;;;;5008282;28;20034;-79
2021/07/27 06:28:51;;;;;;;5.82;2.88;;;24.60;70.40;;;;;;5008877;28;20025;-80
2021/07/27 06:31:17;;;;;;;3.45;2.40;;;24.60;70.60;;;;;;5010974;28;20033;-77
2021/07/27 06:33:44;;;;;;;3.15;2.53;;;24.70;70.60;;;;;;5009897;28;20022;-74
2021/07/27 06:36:11;;;;;;;6.28;2.88;;;24.90;70.20;;;;;;5007059;28;20532;-79
2021/07/27 06:38:37;;;;;;;4.82;2.97;;;24.80;69.60;;;;;;5006088;28;20048;-79
2021/07/27 06:41:07;;;;;;;4.30;2.45;;;24.70;69.80;;;;;;5008089;28;20025;-78
2021/07/27 06:43:33;;;;;;;4.30;2.53;;;24.70;69.70;;;;;;5009666;28;20037;-79
2021/07/27 06:45:59;;;;;;;3.92;2.33;;;24.60;69.50;;;;;;5010041;28;20177;-79
2021/07/27 06:48:24;;;;;;;3.90;1.85;;;24.60;69.80;;;;;;5009189;28;20044;-82
2021/07/27 06:50:51;;;;;;;3.22;2.30;;;24.70;70.30;;;;;;5015822;28;20044;-81
2021/07/27 06:53:17;;;;;;;4.50;2.30;;;24.80;69.90;;;;;;5008062;28;20041;-82
2021/07/27 06:55:42;;;;;;;3.17;2.38;;;24.80;69.60;;;;;;5007553;28;20033;-81
2021/07/27 06:58:08;;;;;;;5.53;2.80;;;24.90;69.50;;;;;;5008630;28;20033;-78
2021/07/27 07:00:34;;;;;;;3.50;2.72;;;24.90;69.60;;;;;;5005894;28;20389;-76
2021/07/27 07:02:59;;;;;;;6.07;3.33;;;25.00;69.10;;;;;;5007290;28;20042;-76
2021/07/27 07:05:25;;;;;;;4.53;2.28;;;25.00;69.10;;;;;;5008427;28;20153;-77
2021/07/27 07:07:50;;;;;;;3.83;2.75;;;24.90;68.60;;;;;;5008185;28;20481;-79
2021/07/27 07:10:16;;;;;;;3.70;2.72;;;24.80;68.30;;;;;;5008036;28;20045;-78
2021/07/27 07:12:41;;;;;;;3.83;2.42;;;24.70;68.50;;;;;;5014458;28;20029;-79
2021/07/27 07:15:07;;;;;;;2.97;2.70;;;24.70;69.20;;;;;;5010515;28;21092;-77
2021/07/27 07:17:33;;;;;;;3.88;3.13;;;24.80;68.80;;;;;;5015608;28;20026;-77
2021/07/27 07:19:59;;;;;;;4.70;3.10;;;24.90;68.70;;;;;;5004722;28;20034;-77
2021/07/27 07:22:24;;;;;;;2.85;2.13;;;25.00;68.40;;;;;;5008167;28;20064;-78
2021/07/27 07:24:51;;;;;;;4.05;2.63;;;24.90;68.60;;;;;;5008142;28;20033;-79
2021/07/27 07:27:17;;;;;;;2.90;2.40;;;24.90;68.60;;;;;;5006320;28;20037;-78
2021/07/27 07:29:43;;;;;;;4.72;3.55;;;24.90;68.50;;;;;;5007232;28;20034;-80
2021/07/27 07:32:09;;;;;;;3.63;3.03;;;24.70;69.00;;;;;;5006471;28;20030;-77
2021/07/27 07:34:35;;;;;;;3.15;2.47;;;24.60;69.20;;;;;;5006759;28;20473;-75
2021/07/27 07:37:03;;;;;;;4.18;3.10;;;24.50;69.50;;;;;;5006941;28;20033;-76
2021/07/27 07:39:30;;;;;;;3.28;2.80;;;24.60;69.50;;;;;;5021117;28;20026;-75
2021/07/27 07:41:58;;;;;;;6.55;2.97;;;24.60;69.10;;;;;;5006677;28;20050;-76
2021/07/27 07:44:24;;;;;;;7.30;3.15;;;24.60;69.50;;;;;;5007372;28;20108;-80
2021/07/27 07:46:50;;;;;;;3.20;2.58;;;24.70;69.30;;;;;;5011847;28;20508;-81
2021/07/27 07:49:15;;;;;;;5.38;3.33;;;24.70;69.10;;;;;;5010783;28;20025;-81
2021/07/27 07:51:50;;;;;;;4.47;2.90;;;24.70;69.10;;;;;;5014273;28;20036;-84
2021/07/27 07:54:17;;;;;;;4.83;2.40;;;24.70;69.00;;;;;;5022741;28;20512;-82
2021/07/27 07:56:44;;;;;;;4.97;3.45;;;24.70;69.10;;;;;;5037613;28;20109;-80
2021/07/27 07:59:33;;;;;;;3.20;2.78;;;24.80;69.20;;;;;;5010368;28;20574;-79
2021/07/27 08:01:59;;;;;;;3.28;2.90;;;24.90;68.80;;;;;;5017991;28;20485;-80
2021/07/27 08:04:25;;;;;;;3.95;3.28;;;25.10;68.50;;;;;;5011711;28;20132;-82
2021/07/27 08:06:52;;;;;;;3.30;2.88;;;25.10;68.20;;;;;;5026528;28;20022;-77
2021/07/27 08:09:17;;;;;;;6.10;3.08;;;25.30;68.10;;;;;;5009816;28;20084;-77
2021/07/27 08:11:43;;;;;;;4.07;2.92;;;25.50;68.00;;;;;;5024564;28;20033;-76
2021/07/27 08:14:09;;;;;;;3.60;3.13;;;25.70;67.90;;;;;;5008595;28;20034;-77
2021/07/27 08:16:35;;;;;;;4.45;2.85;;;25.90;67.10;;;;;;5017835;28;20124;-76
2021/07/27 08:19:02;;;;;;;3.15;2.85;;;26.00;66.70;;;;;;5010199;28;20111;-76
2021/07/27 08:21:27;;;;;;;3.78;2.88;;;26.10;66.40;;;;;;5010236;28;20034;-76
2021/07/27 08:23:53;;;;;;;3.42;3.13;;;26.00;65.90;;;;;;5010531;28;20053;-77
2021/07/27 08:26:19;;;;;;;4.35;3.42;;;26.00;66.30;;;;;;5010739;28;20030;-79
2021/07/27 08:28:46;;;;;;;4.18;3.25;;;25.90;66.10;;;;;;5010914;28;20057;-81
2021/07/27 08:31:13;;;;;;;5.00;3.45;;;25.90;66.30;;;;;;5008220;28;20026;-78
2021/07/27 08:33:40;;;;;;;4.43;3.45;;;26.10;65.70;;;;;;5012185;28;20034;-76
2021/07/27 08:36:05;;;;;;;4.32;3.85;;;26.10;64.90;;;;;;5010958;28;20026;-75
2021/07/27 08:38:34;;;;;;;3.33;2.92;;;26.20;65.00;;;;;;5010525;28;20644;-85
2021/07/27 08:41:00;;;;;;;3.67;2.92;;;26.10;64.80;;;;;;5009063;28;20113;-80
2021/07/27 08:43:26;;;;;;;3.40;3.10;;;25.90;64.50;;;;;;5014898;28;20069;-77
2021/07/27 08:45:51;;;;;;;3.22;2.63;;;26.00;64.90;;;;;;5008651;28;21035;-76
2021/07/27 08:48:18;;;;;;;4.97;4.05;;;26.20;64.50;;;;;;5009951;28;20062;-84
2021/07/27 08:50:46;;;;;;;3.97;3.55;;;26.30;64.30;;;;;;5026211;28;20049;-78
2021/07/27 08:53:12;;;;;;;4.15;2.97;;;26.30;64.10;;;;;;5010177;28;20030;-81
2021/07/27 08:55:38;;;;;;;5.25;3.50;;;26.50;63.90;;;;;;5016507;28;20017;-78
2021/07/27 08:58:04;;;;;;;5.45;3.08;;;26.50;63.40;;;;;;5014885;28;20473;-82
2021/07/27 09:00:31;;;;;;;3.95;3.65;;;26.40;63.60;;;;;;5003628;28;20033;-78
2021/07/27 09:03:09;;;;;;;4.45;4.05;;;26.50;63.50;;;;;;5011769;28;20414;-83
2021/07/27 09:05:35;;;;;;;4.38;3.38;;;26.70;62.80;;;;;;5010202;28;20030;-80
2021/07/27 09:08:02;;;;;;;3.53;3.22;;;26.70;62.90;;;;;;5007304;28;20563;-80
2021/07/27 09:10:29;;;;;;;4.45;4.10;;;26.70;62.90;;;;;;5024506;28;20099;-83
2021/07/27 09:13:02;;;;;;;5.00;3.92;;;26.60;62.70;;;;;;5010201;28;20014;-77
2021/07/27 09:15:33;;;;;;;3.85;3.55;;;26.50;62.80;;;;;;5001191;28;20041;-78
2021/07/27 09:17:59;;;;;;;3.88;3.58;;;26.40;62.30;;;;;;5008510;28;20044;-77
2021/07/27 09:20:36;;;;;;;5.10;3.65;;;26.10;62.50;;;;;;5009192;28;20050;-76
2021/07/27 09:23:02;;;;;;;5.32;3.80;;;25.90;63.20;;;;;;5014222;28;20030;-79
2021/07/27 09:25:30;;;;;;;4.88;4.00;;;25.90;63.60;;;;;;5011507;28;20097;-78
2021/07/27 09:28:04;;;;;;;4.45;3.88;;;25.90;63.60;;;;;;5010121;28;20026;-76
2021/07/27 09:30:30;;;;;;;4.35;3.95;;;25.90;63.70;;;;;;5009423;28;20274;-79
2021/07/27 09:32:58;;;;;;;5.32;3.65;;;26.00;63.70;;;;;;5010562;28;20540;-83
2021/07/27 09:35:25;;;;;;;5.07;4.18;;;26.00;63.80;;;;;;5011897;28;20037;-77
2021/07/27 09:38:06;;;;;;;3.58;2.97;;;26.30;63.10;;;;;;5010239;28;20157;-77
2021/07/27 09:40:33;;;;;;;3.88;3.58;;;26.40;63.00;;;;;;5008451;28;20038;-86
2021/07/27 09:43:00;;;;;;;3.70;3.40;;;26.50;62.80;;;;;;5009712;28;20110;-80
2021/07/27 09:45:26;;;;;;;3.33;3.03;;;26.50;62.40;;;;;;5007666;28;20069;-79
2021/07/27 09:47:54;;;;;;;3.45;3.15;;;26.50;61.80;;;;;;5008128;28;20061;-87
2021/07/27 09:50:22;;;;;;;3.47;2.80;;;26.50;61.80;;;;;;5023765;28;20022;-83
2021/07/27 09:52:48;;;;;;;7.38;3.65;;;26.50;61.50;;;;;;5024332;28;20068;-86
2021/07/27 09:55:14;;;;;;;6.63;3.38;;;26.50;62.00;;;;;;5007078;28;20032;-80
2021/07/27 09:57:40;;;;;;;5.82;3.13;;;26.70;62.00;;;;;;5010063;28;20030;-82
2021/07/27 10:00:06;;;;;;;8.98;3.90;;;26.70;61.90;;;;;;5008775;28;20531;-78
2021/07/27 10:02:39;;;;;;;5.03;2.90;;;26.90;61.50;;;;;;5008048;28;20559;-79
2021/07/27 10:05:08;;;;;;;4.93;3.40;;;27.00;61.30;;;;;;5008783;28;20068;-81
2021/07/27 10:07:33;;;;;;;5.78;3.33;;;27.10;61.00;;;;;;5009148;28;20117;-77
2021/07/27 10:10:11;;;;;;;3.30;3.05;;;27.20;60.70;;;;;;5009521;28;20100;-77
2021/07/27 10:12:37;;;;;;;8.93;2.85;;;27.00;60.20;;;;;;5009935;28;20642;-80
2021/07/27 10:15:11;;;;;;;5.57;3.10;;;27.00;60.90;;;;;;5007144;28;20113;-79
2021/07/27 10:17:50;;;;;;;7.72;3.35;;;26.90;60.70;;;;;;5007983;28;20033;-83
2021/07/27 10:20:27;;;;;;;3.50;2.45;;;27.10;60.80;;;;;;5022853;28;20036;-78
2021/07/27 10:23:02;;;;;;;2.53;2.33;;;27.20;60.50;;;;;;5008665;28;20030;-78
2021/07/27 10:25:27;;;;;;;4.47;3.30;;;27.20;59.90;;;;;;5011900;28;20040;-77
2021/07/27 10:27:54;;;;;;;4.78;2.70;;;27.10;59.80;;;;;;5009892;28;20612;-82
2021/07/27 10:30:33;;;;;;;2.65;2.45;;;27.10;59.50;;;;;;5006080;28;20029;-79
2021/07/27 10:33:01;;;;;;;5.53;2.42;;;27.00;59.80;;;;;;5010149;28;20025;-86
2021/07/27 10:35:34;;;;;;;2.72;2.30;;;27.10;59.80;;;;;;5013989;28;20033;-79
2021/07/27 10:38:14;;;;;;;2.30;2.10;;;27.10;59.20;;;;;;5006742;28;20084;-79
2021/07/27 10:40:43;;;;;;;2.90;2.53;;;27.20;59.10;;;;;;5009547;28;20033;-79
2021/07/27 10:43:09;;;;;;;3.15;2.20;;;27.30;59.40;;;;;;5008107;28;20507;-78
2021/07/27 10:45:35;;;;;;;2.58;2.00;;;27.40;58.80;;;;;;5015738;28;20170;-80
2021/07/27 10:48:01;;;;;;;4.82;2.05;;;27.40;58.30;;;;;;5007717;28;20382;-78
2021/07/27 10:50:31;;;;;;;3.17;2.83;;;27.30;58.30;;;;;;5007695;28;20033;-78
2021/07/27 10:53:12;;;;;;;5.35;2.03;;;27.30;58.20;;;;;;5008702;28;20160;-78
2021/07/27 10:55:42;;;;;;;3.50;2.33;;;27.10;57.80;;;;;;5008826;28;20021;-78
2021/07/27 10:58:16;;;;;;;3.03;1.85;;;27.00;57.90;;;;;;5004926;28;20030;-75
2021/07/27 11:00:42;;;;;;;4.05;2.00;;;27.00;58.30;;;;;;5006420;28;20065;-77
2021/07/27 11:03:07;;;;;;;2.78;2.25;;;27.10;58.60;;;;;;5008868;28;20029;-79
2021/07/27 11:05:33;;;;;;;12.93;2.78;;;27.20;58.20;;;;;;5005259;28;20056;-74
2021/07/27 11:07:58;;;;;;;2.25;2.10;;;27.40;58.00;;;;;;5008607;28;20033;-75
2021/07/27 11:10:26;;;;;;;6.28;1.85;;;27.60;57.20;;;;;;5011103;28;20026;-76
2021/07/27 11:12:52;;;;;;;3.38;2.08;;;27.70;57.20;;;;;;5009585;28;20109;-76
2021/07/27 11:15:28;;;;;;;2.65;2.10;;;27.70;55.90;;;;;;5008316;28;20510;-74
2021/07/27 11:17:57;;;;;;;2.83;2.38;;;28.00;56.90;;;;;;5008085;28;20048;-74
2021/07/27 11:20:31;;;;;;;3.15;2.10;;;28.10;56.00;;;;;;5006685;28;20378;-73
2021/07/27 11:23:18;;;;;;;2.08;1.92;;;28.20;56.20;;;;;;5007105;28;20081;-73
2021/07/27 11:25:52;;;;;;;3.22;2.67;;;28.30;56.10;;;;;;5010420;28;20053;-74
2021/07/27 11:28:18;;;;;;;4.88;2.40;;;28.20;56.00;;;;;;5010413;28;20252;-77
2021/07/27 11:30:47;;;;;;;6.57;3.50;;;28.10;55.90;;;;;;5012959;28;20033;-79
2021/07/27 11:33:17;;;;;;;4.68;2.38;;;28.10;56.20;;;;;;5009669;28;20026;-76
2021/07/27 11:35:51;;;;;;;2.47;1.98;;;28.20;56.10;;;;;;5011266;28;20117;-83
2021/07/27 11:38:23;;;;;;;3.65;2.55;;;28.30;55.90;;;;;;5011217;28;20067;-75
2021/07/27 11:40:50;;;;;;;4.63;2.58;;;28.40;55.60;;;;;;5010894;28;20033;-78
2021/07/27 11:43:18;;;;;;;5.18;2.55;;;28.50;55.70;;;;;;5018947;28;20030;-79
2021/07/27 11:45:45;;;;;;;3.47;2.35;;;28.60;54.70;;;;;;5008872;28;20037;-77
2021/07/27 11:48:12;;;;;;;5.10;2.33;;;28.50;54.50;;;;;;5010162;28;20041;-79
2021/07/27 11:50:40;;;;;;;3.00;2.70;;;28.40;55.30;;;;;;5019207;28;20120;-79
2021/07/27 11:53:10;;;;;;;2.90;2.70;;;28.50;55.50;;;;;;5011153;28;20481;-74
2021/07/27 11:55:37;;;;;;;4.03;2.63;;;28.50;54.50;;;;;;5009655;28;20074;-75
2021/07/27 11:58:04;;;;;;;3.65;2.45;;;28.40;54.60;;;;;;5012586;28;20026;-80
2021/07/27 12:00:32;;;;;;;3.25;2.88;;;28.40;54.90;;;;;;5003735;28;20507;-75
2021/07/27 12:02:58;;;;;;;2.53;2.08;;;28.50;55.00;;;;;;5011851;28;20084;-81
2021/07/27 12:05:24;;;;;;;7.38;2.50;;;28.70;54.80;;;;;;5012721;28;20096;-82
2021/07/27 12:07:49;;;;;;;4.90;2.80;;;28.70;54.90;;;;;;5010421;28;20018;-74
2021/07/27 12:10:15;;;;;;;2.40;2.20;;;28.60;54.60;;;;;;5010718;28;20041;-79
2021/07/27 12:12:42;;;;;;;6.25;2.63;;;28.50;54.60;;;;;;5008761;28;20022;-76
2021/07/27 12:15:08;;;;;;;5.60;2.60;;;28.40;54.10;;;;;;5009460;28;20124;-75
2021/07/27 12:17:34;;;;;;;2.47;2.28;;;28.50;55.20;;;;;;5012034;28;20564;-80
2021/07/27 12:20:00;;;;;;;2.80;1.70;;;28.70;55.00;;;;;;5007911;28;20037;-80
2021/07/27 12:22:26;;;;;;;6.70;2.08;;;28.90;54.70;;;;;;5011053;28;20065;-80
2021/07/27 12:24:52;;;;;;;4.32;2.42;;;29.10;54.30;;;;;;5011265;28;20075;-77
2021/07/27 12:27:17;;;;;;;3.03;1.98;;;29.10;53.50;;;;;;5010680;28;20044;-76
2021/07/27 12:29:43;;;;;;;4.53;2.70;;;28.90;53.00;;;;;;5011276;28;20022;-76
2021/07/27 12:32:08;;;;;;;3.83;2.67;;;28.80;54.00;;;;;;5008834;28;20057;-78
2021/07/27 12:34:39;;;;;;;2.60;2.40;;;28.90;53.30;;;;;;5025852;28;20041;-83
2021/07/27 12:37:04;;;;;;;4.75;2.50;;;28.90;53.00;;;;;;5001755;28;20505;-79
2021/07/27 12:39:30;;;;;;;4.18;2.72;;;28.80;53.90;;;;;;5011315;28;20132;-77
2021/07/27 12:41:55;;;;;;;4.57;2.13;;;28.90;53.30;;;;;;5017801;28;20022;-78
2021/07/27 12:44:37;;;;;;;3.72;2.40;;;29.00;53.00;;;;;;5012012;28;20044;-80
2021/07/27 12:47:03;;;;;;;2.20;2.00;;;29.00;53.60;;;;;;4992587;28;20030;-79
2021/07/27 12:49:30;;;;;;;6.63;2.95;;;29.00;53.20;;;;;;5009513;28;20053;-77
2021/07/27 12:51:56;;;;;;;2.78;2.35;;;29.20;53.70;;;;;;5017235;28;20025;-76
2021/07/27 12:54:21;;;;;;;2.38;1.95;;;29.40;53.20;;;;;;5009263;28;20036;-76
2021/07/27 12:56:47;;;;;;;4.30;2.42;;;29.60;52.00;;;;;;5012113;28;20029;-77
2021/07/27 12:59:13;;;;;;;2.25;2.00;;;29.50;53.10;;;;;;5008787;28;20366;-76
2021/07/27 13:01:38;;;;;;;5.03;2.55;;;29.60;52.20;;;;;;5007580;28;20034;-79